sensor_id;sensor_type;location;lat;lon;timestamp;P1;durP1;ratioP1;P2;durP2;ratioP2
15667;SDS011;7934;48.710;9.024;2023-04-28T00:02:28;4.17;;;3.03;;
15667;SDS011;7934;48.710;9.024;2023-04-28T00:04:58;3.30;;;3.00;;
15667;SDS011;7934;48.710;9.024;2023-04-28T00:07:27;4.22;;;2.80;;
15667;SDS011;7934;48.710;9.024;2023-04-28T00:09:54;4.07;;;3.10;;
15667;SDS011;7934;48.710;9.024;2023-04-28T00:12:21;4.40;;;3.15;;
15667;SDS011;7934;48.710;9.024;2023-04-28T00:14:49;4.60;;;3.00;;
15667;SDS011;7934;48.710;9.024;2023-04-28T00:17:16;6.47;;;3.28;;
15667;SDS011;7934;48.710;9.024;2023-04-28T00:19:43;3.35;;;3.05;;
15667;SDS011;7934;48.710;9.024;2023-04-28T00:25:00;4.05;;;3.47;;
15667;SDS011;7934;48.710;9.024;2023-04-28T00:27:31;5.55;;;3.40;;
15667;SDS011;7934;48.710;9.024;2023-04-28T00:29:58;4.95;;;3.58;;
15667;SDS011;7934;48.710;9.024;2023-04-28T00:32:25;4.00;;;3.65;;
15667;SDS011;7934;48.710;9.024;2023-04-28T00:34:53;5.90;;;3.65;;
15667;SDS011;7934;48.710;9.024;2023-04-28T00:37:20;4.93;;;4.20;;
15667;SDS011;7934;48.710;9.024;2023-04-28T00:39:47;6.55;;;3.80;;
15667;SDS011;7934;48.710;9.024;2023-04-28T00:42:16;5.15;;;3.72;;
15667;SDS011;7934;48.710;9.024;2023-04-28T00:44:43;4.25;;;3.80;;
15667;SDS011;7934;48.710;9.024;2023-04-28T00:47:13;5.30;;;3.30;;
15667;SDS011;7934;48.710;9.024;2023-04-28T00:49:48;3.97;;;3.53;;
15667;SDS011;7934;48.710;9.024;2023-04-28T00:52:21;6.40;;;3.53;;
15667;SDS011;7934;48.710;9.024;2023-04-28T00:54:53;5.05;;;3.90;;
15667;SDS011;7934;48.710;9.024;2023-04-28T00:57:24;5.80;;;4.28;;
15667;SDS011;7934;48.710;9.024;2023-04-28T00:59:52;5.28;;;3.50;;
15667;SDS011;7934;48.710;9.024;2023-04-28T01:02:19;3.72;;;3.42;;
15667;SDS011;7934;48.710;9.024;2023-04-28T01:04:46;3.67;;;3.37;;
15667;SDS011;7934;48.710;9.024;2023-04-28T01:07:14;6.45;;;3.60;;
15667;SDS011;7934;48.710;9.024;2023-04-28T01:09:41;4.35;;;3.47;;
15667;SDS011;7934;48.710;9.024;2023-04-28T01:12:09;6.82;;;3.55;;
15667;SDS011;7934;48.710;9.024;2023-04-28T01:14:40;5.90;;;3.80;;
15667;SDS011;7934;48.710;9.024;2023-04-28T01:17:08;5.53;;;3.58;;
15667;SDS011;7934;48.710;9.024;2023-04-28T01:19:39;5.60;;;3.60;;
15667;SDS011;7934;48.710;9.024;2023-04-28T01:22:06;4.73;;;3.63;;
15667;SDS011;7934;48.710;9.024;2023-04-28T01:24:36;5.40;;;3.50;;
15667;SDS011;7934;48.710;9.024;2023-04-28T01:27:03;4.53;;;3.72;;
15667;SDS011;7934;48.710;9.024;2023-04-28T01:29:30;4.18;;;3.70;;
15667;SDS011;7934;48.710;9.024;2023-04-28T01:31:57;4.47;;;3.50;;
15667;SDS011;7934;48.710;9.024;2023-04-28T01:34:24;3.70;;;3.35;;
15667;SDS011;7934;48.710;9.024;2023-04-28T01:36:51;6.05;;;3.58;;
15667;SDS011;7934;48.710;9.024;2023-04-28T01:39:18;4.23;;;3.23;;
15667;SDS011;7934;48.710;9.024;2023-04-28T01:41:47;4.13;;;3.17;;
15667;SDS011;7934;48.710;9.024;2023-04-28T01:44:14;4.78;;;3.25;;
15667;SDS011;7934;48.710;9.024;2023-04-28T01:46:47;6.03;;;3.60;;
15667;SDS011;7934;48.710;9.024;2023-04-28T01:49:14;4.50;;;3.72;;
15667;SDS011;7934;48.710;9.024;2023-04-28T01:51:41;6.13;;;3.60;;
15667;SDS011;7934;48.710;9.024;2023-04-28T01:54:09;3.88;;;3.53;;
15667;SDS011;7934;48.710;9.024;2023-04-28T01:56:36;3.88;;;3.20;;
15667;SDS011;7934;48.710;9.024;2023-04-28T01:59:09;6.90;;;3.70;;
15667;SDS011;7934;48.710;9.024;2023-04-28T02:01:36;4.03;;;3.00;;
15667;SDS011;7934;48.710;9.024;2023-04-28T02:04:03;5.22;;;3.70;;
15667;SDS011;7934;48.710;9.024;2023-04-28T02:06:32;3.67;;;3.38;;
15667;SDS011;7934;48.710;9.024;2023-04-28T02:09:02;4.15;;;3.42;;
15667;SDS011;7934;48.710;9.024;2023-04-28T02:11:33;3.58;;;3.28;;
15667;SDS011;7934;48.710;9.024;2023-04-28T02:14:05;4.20;;;3.40;;
15667;SDS011;7934;48.710;9.024;2023-04-28T02:16:32;4.13;;;3.40;;
15667;SDS011;7934;48.710;9.024;2023-04-28T02:18:59;5.05;;;3.30;;
15667;SDS011;7934;48.710;9.024;2023-04-28T02:21:26;4.47;;;3.42;;
15667;SDS011;7934;48.710;9.024;2023-04-28T02:23:53;5.05;;;3.55;;
15667;SDS011;7934;48.710;9.024;2023-04-28T02:26:24;3.88;;;3.30;;
15667;SDS011;7934;48.710;9.024;2023-04-28T02:28:51;6.13;;;3.17;;
15667;SDS011;7934;48.710;9.024;2023-04-28T02:31:23;5.55;;;3.60;;
15667;SDS011;7934;48.710;9.024;2023-04-28T02:33:50;4.20;;;3.40;;
15667;SDS011;7934;48.710;9.024;2023-04-28T02:36:18;4.70;;;3.20;;
15667;SDS011;7934;48.710;9.024;2023-04-28T02:38:45;4.50;;;3.08;;
15667;SDS011;7934;48.710;9.024;2023-04-28T02:41:12;6.72;;;3.38;;
15667;SDS011;7934;48.710;9.024;2023-04-28T02:43:40;5.40;;;3.40;;
15667;SDS011;7934;48.710;9.024;2023-04-28T02:46:09;4.38;;;3.30;;
15667;SDS011;7934;48.710;9.024;2023-04-28T02:48:38;4.65;;;3.58;;
15667;SDS011;7934;48.710;9.024;2023-04-28T02:51:05;3.53;;;2.97;;
15667;SDS011;7934;48.710;9.024;2023-04-28T02:53:32;5.10;;;3.58;;
15667;SDS011;7934;48.710;9.024;2023-04-28T02:55:59;3.78;;;3.38;;
15667;SDS011;7934;48.710;9.024;2023-04-28T02:58:28;3.30;;;3.10;;
15667;SDS011;7934;48.710;9.024;2023-04-28T03:00:58;3.20;;;3.00;;
15667;SDS011;7934;48.710;9.024;2023-04-28T03:03:25;3.03;;;2.83;;
15667;SDS011;7934;48.710;9.024;2023-04-28T03:05:54;3.50;;;3.30;;
15667;SDS011;7934;48.710;9.024;2023-04-28T03:08:21;3.63;;;3.20;;
15667;SDS011;7934;48.710;9.024;2023-04-28T03:10:49;5.90;;;3.53;;
15667;SDS011;7934;48.710;9.024;2023-04-28T03:13:16;6.37;;;3.90;;
15667;SDS011;7934;48.710;9.024;2023-04-28T03:15:43;4.90;;;3.40;;
15667;SDS011;7934;48.710;9.024;2023-04-28T03:18:11;7.18;;;3.47;;
15667;SDS011;7934;48.710;9.024;2023-04-28T03:20:38;4.60;;;3.40;;
15667;SDS011;7934;48.710;9.024;2023-04-28T03:23:06;4.88;;;3.40;;
15667;SDS011;7934;48.710;9.024;2023-04-28T03:25:33;5.20;;;3.33;;
15667;SDS011;7934;48.710;9.024;2023-04-28T03:28:01;4.07;;;3.40;;
15667;SDS011;7934;48.710;9.024;2023-04-28T03:30:29;3.58;;;3.20;;
15667;SDS011;7934;48.710;9.024;2023-04-28T03:32:56;4.87;;;3.73;;
15667;SDS011;7934;48.710;9.024;2023-04-28T03:35:23;4.93;;;3.85;;
15667;SDS011;7934;48.710;9.024;2023-04-28T03:37:50;3.88;;;3.55;;
15667;SDS011;7934;48.710;9.024;2023-04-28T03:40:19;3.75;;;3.17;;
15667;SDS011;7934;48.710;9.024;2023-04-28T03:42:46;5.90;;;4.20;;
15667;SDS011;7934;48.710;9.024;2023-04-28T03:45:13;4.25;;;3.85;;
15667;SDS011;7934;48.710;9.024;2023-04-28T03:47:40;11.05;;;4.38;;
15667;SDS011;7934;48.710;9.024;2023-04-28T03:50:08;6.38;;;4.00;;
15667;SDS011;7934;48.710;9.024;2023-04-28T03:52:35;4.53;;;3.83;;
15667;SDS011;7934;48.710;9.024;2023-04-28T03:55:02;5.78;;;3.85;;
15667;SDS011;7934;48.710;9.024;2023-04-28T03:57:31;3.88;;;3.58;;
15667;SDS011;7934;48.710;9.024;2023-04-28T03:59:58;3.88;;;3.58;;
15667;SDS011;7934;48.710;9.024;2023-04-28T04:02:25;5.88;;;4.00;;
15667;SDS011;7934;48.710;9.024;2023-04-28T04:04:53;4.03;;;3.67;;
15667;SDS011;7934;48.710;9.024;2023-04-28T04:07:20;6.05;;;4.00;;
15667;SDS011;7934;48.710;9.024;2023-04-28T04:09:48;4.43;;;4.03;;
15667;SDS011;7934;48.710;9.024;2023-04-28T04:12:18;4.50;;;3.60;;
15667;SDS011;7934;48.710;9.024;2023-04-28T04:14:46;4.30;;;3.90;;
15667;SDS011;7934;48.710;9.024;2023-04-28T04:17:14;5.90;;;3.90;;
15667;SDS011;7934;48.710;9.024;2023-04-28T04:19:46;3.72;;;3.42;;
15667;SDS011;7934;48.710;9.024;2023-04-28T04:22:13;5.13;;;3.97;;
15667;SDS011;7934;48.710;9.024;2023-04-28T04:24:40;7.40;;;4.00;;
15667;SDS011;7934;48.710;9.024;2023-04-28T04:27:07;5.47;;;3.85;;
15667;SDS011;7934;48.710;9.024;2023-04-28T04:29:35;4.65;;;3.67;;
15667;SDS011;7934;48.710;9.024;2023-04-28T04:32:04;4.10;;;3.70;;
15667;SDS011;7934;48.710;9.024;2023-04-28T04:34:31;7.88;;;4.15;;
15667;SDS011;7934;48.710;9.024;2023-04-28T04:36:58;5.45;;;3.65;;
15667;SDS011;7934;48.710;9.024;2023-04-28T04:39:29;4.90;;;3.75;;
15667;SDS011;7934;48.710;9.024;2023-04-28T04:41:56;5.25;;;4.78;;
15667;SDS011;7934;48.710;9.024;2023-04-28T04:44:23;5.60;;;4.10;;
15667;SDS011;7934;48.710;9.024;2023-04-28T04:46:50;3.80;;;3.50;;
15667;SDS011;7934;48.710;9.024;2023-04-28T04:49:19;4.00;;;3.70;;
15667;SDS011;7934;48.710;9.024;2023-04-28T04:51:46;4.32;;;4.03;;
15667;SDS011;7934;48.710;9.024;2023-04-28T04:54:16;4.32;;;3.90;;
15667;SDS011;7934;48.710;9.024;2023-04-28T04:56:43;7.17;;;4.30;;
15667;SDS011;7934;48.710;9.024;2023-04-28T04:59:10;4.72;;;4.30;;
15667;SDS011;7934;48.710;9.024;2023-04-28T05:01:37;4.70;;;4.30;;
15667;SDS011;7934;48.710;9.024;2023-04-28T05:04:04;5.40;;;4.30;;
15667;SDS011;7934;48.710;9.024;2023-04-28T05:06:33;5.17;;;4.73;;
15667;SDS011;7934;48.710;9.024;2023-04-28T05:09:00;4.88;;;4.47;;
15667;SDS011;7934;48.710;9.024;2023-04-28T05:11:27;5.53;;;5.00;;
15667;SDS011;7934;48.710;9.024;2023-04-28T05:13:54;5.80;;;5.22;;
15667;SDS011;7934;48.710;9.024;2023-04-28T05:16:22;5.43;;;5.03;;
15667;SDS011;7934;48.710;9.024;2023-04-28T05:18:51;5.50;;;4.95;;
15667;SDS011;7934;48.710;9.024;2023-04-28T05:21:18;5.78;;;5.20;;
15667;SDS011;7934;48.710;9.024;2023-04-28T05:23:47;5.93;;;5.43;;
15667;SDS011;7934;48.710;9.024;2023-04-28T05:26:14;5.72;;;5.07;;
15667;SDS011;7934;48.710;9.024;2023-04-28T05:28:41;6.15;;;5.65;;
15667;SDS011;7934;48.710;9.024;2023-04-28T05:31:08;6.22;;;5.70;;
15667;SDS011;7934;48.710;9.024;2023-04-28T05:33:36;5.60;;;5.20;;
15667;SDS011;7934;48.710;9.024;2023-04-28T05:36:03;7.38;;;5.82;;
15667;SDS011;7934;48.710;9.024;2023-04-28T05:38:31;6.00;;;5.50;;
15667;SDS011;7934;48.710;9.024;2023-04-28T05:40:59;8.00;;;5.75;;
15667;SDS011;7934;48.710;9.024;2023-04-28T05:43:27;6.07;;;5.57;;
15667;SDS011;7934;48.710;9.024;2023-04-28T05:45:57;6.43;;;5.82;;
15667;SDS011;7934;48.710;9.024;2023-04-28T05:48:24;6.30;;;5.78;;
15667;SDS011;7934;48.710;9.024;2023-04-28T05:50:51;6.38;;;5.75;;
15667;SDS011;7934;48.710;9.024;2023-04-28T05:53:18;7.03;;;5.73;;
15667;SDS011;7934;48.710;9.024;2023-04-28T05:55:45;6.25;;;5.75;;
15667;SDS011;7934;48.710;9.024;2023-04-28T05:58:14;6.47;;;5.55;;
15667;SDS011;7934;48.710;9.024;2023-04-28T06:00:41;7.38;;;6.07;;
15667;SDS011;7934;48.710;9.024;2023-04-28T06:03:08;5.97;;;5.27;;
15667;SDS011;7934;48.710;9.024;2023-04-28T06:05:38;6.40;;;5.80;;
15667;SDS011;7934;48.710;9.024;2023-04-28T06:08:05;6.67;;;5.70;;
15667;SDS011;7934;48.710;9.024;2023-04-28T06:10:32;6.57;;;5.32;;
15667;SDS011;7934;48.710;9.024;2023-04-28T06:12:59;5.97;;;5.45;;
15667;SDS011;7934;48.710;9.024;2023-04-28T06:15:30;6.30;;;5.80;;
15667;SDS011;7934;48.710;9.024;2023-04-28T06:17:57;6.03;;;5.53;;
15667;SDS011;7934;48.710;9.024;2023-04-28T06:20:24;6.05;;;5.55;;
15667;SDS011;7934;48.710;9.024;2023-04-28T06:22:51;8.23;;;5.90;;
15667;SDS011;7934;48.710;9.024;2023-04-28T06:25:18;6.88;;;6.10;;
15667;SDS011;7934;48.710;9.024;2023-04-28T06:27:45;6.28;;;5.78;;
15667;SDS011;7934;48.710;9.024;2023-04-28T06:30:16;7.70;;;5.80;;
15667;SDS011;7934;48.710;9.024;2023-04-28T06:32:45;6.88;;;6.03;;
15667;SDS011;7934;48.710;9.024;2023-04-28T06:35:12;7.32;;;5.43;;
15667;SDS011;7934;48.710;9.024;2023-04-28T06:37:40;6.18;;;5.53;;
15667;SDS011;7934;48.710;9.024;2023-04-28T06:40:07;6.00;;;5.40;;
15667;SDS011;7934;48.710;9.024;2023-04-28T06:42:34;6.78;;;5.63;;
15667;SDS011;7934;48.710;9.024;2023-04-28T06:45:02;5.55;;;5.05;;
15667;SDS011;7934;48.710;9.024;2023-04-28T06:47:29;5.22;;;4.72;;
15667;SDS011;7934;48.710;9.024;2023-04-28T06:52:40;4.97;;;4.47;;
15667;SDS011;7934;48.710;9.024;2023-04-28T06:55:48;4.72;;;4.22;;
15667;SDS011;7934;48.710;9.024;2023-04-28T06:57:58;4.53;;;4.15;;
15667;SDS011;7934;48.710;9.024;2023-04-28T07:00:25;4.32;;;3.88;;
15667;SDS011;7934;48.710;9.024;2023-04-28T07:03:01;4.40;;;4.00;;
15667;SDS011;7934;48.710;9.024;2023-04-28T07:06:16;4.20;;;3.80;;
15667;SDS011;7934;48.710;9.024;2023-04-28T07:08:34;4.13;;;3.83;;
15667;SDS011;7934;48.710;9.024;2023-04-28T07:11:02;4.40;;;4.10;;
15667;SDS011;7934;48.710;9.024;2023-04-28T07:13:30;4.25;;;4.05;;
15667;SDS011;7934;48.710;9.024;2023-04-28T07:16:11;4.47;;;4.20;;
15667;SDS011;7934;48.710;9.024;2023-04-28T07:18:38;4.18;;;3.90;;
15667;SDS011;7934;48.710;9.024;2023-04-28T07:21:05;4.20;;;3.83;;
15667;SDS011;7934;48.710;9.024;2023-04-28T07:23:34;3.95;;;3.65;;
15667;SDS011;7934;48.710;9.024;2023-04-28T07:26:02;4.05;;;3.78;;
15667;SDS011;7934;48.710;9.024;2023-04-28T07:28:29;4.28;;;3.83;;
15667;SDS011;7934;48.710;9.024;2023-04-28T07:30:56;4.10;;;3.60;;
15667;SDS011;7934;48.710;9.024;2023-04-28T07:33:26;3.80;;;3.60;;
15667;SDS011;7934;48.710;9.024;2023-04-28T07:35:53;4.07;;;3.60;;
15667;SDS011;7934;48.710;9.024;2023-04-28T07:38:21;4.30;;;3.90;;
15667;SDS011;7934;48.710;9.024;2023-04-28T07:40:49;4.13;;;3.83;;
15667;SDS011;7934;48.710;9.024;2023-04-28T07:43:25;4.55;;;4.25;;
15667;SDS011;7934;48.710;9.024;2023-04-28T07:45:59;5.10;;;4.20;;
15667;SDS011;7934;48.710;9.024;2023-04-28T07:48:27;5.15;;;4.55;;
15667;SDS011;7934;48.710;9.024;2023-04-28T07:50:56;4.90;;;4.50;;
15667;SDS011;7934;48.710;9.024;2023-04-28T07:53:23;5.60;;;5.20;;
15667;SDS011;7934;48.710;9.024;2023-04-28T07:55:52;6.55;;;5.15;;
15667;SDS011;7934;48.710;9.024;2023-04-28T07:58:23;5.78;;;5.35;;
15667;SDS011;7934;48.710;9.024;2023-04-28T08:00:50;10.35;;;6.20;;
15667;SDS011;7934;48.710;9.024;2023-04-28T08:03:20;8.27;;;6.05;;
15667;SDS011;7934;48.710;9.024;2023-04-28T08:05:47;0.63;;;0.63;;
15667;SDS011;7934;48.710;9.024;2023-04-28T08:08:17;1.97;;;0.80;;
15667;SDS011;7934;48.710;9.024;2023-04-28T08:10:44;0.43;;;0.32;;
15667;SDS011;7934;48.710;9.024;2023-04-28T08:13:13;0.43;;;0.43;;
15667;SDS011;7934;48.710;9.024;2023-04-28T08:15:40;2.10;;;0.65;;
15667;SDS011;7934;48.710;9.024;2023-04-28T08:18:07;0.90;;;0.90;;
15667;SDS011;7934;48.710;9.024;2023-04-28T08:20:35;0.30;;;0.30;;
15667;SDS011;7934;48.710;9.024;2023-04-28T08:23:02;0.43;;;0.43;;
15667;SDS011;7934;48.710;9.024;2023-04-28T08:25:29;0.70;;;0.70;;
15667;SDS011;7934;48.710;9.024;2023-04-28T08:27:56;0.90;;;0.60;;
15667;SDS011;7934;48.710;9.024;2023-04-28T08:30:25;0.55;;;0.55;;
15667;SDS011;7934;48.710;9.024;2023-04-28T08:32:52;0.52;;;0.52;;
15667;SDS011;7934;48.710;9.024;2023-04-28T08:35:19;1.00;;;1.00;;
15667;SDS011;7934;48.710;9.024;2023-04-28T08:37:46;0.85;;;0.85;;
15667;SDS011;7934;48.710;9.024;2023-04-28T08:40:14;0.65;;;0.65;;
15667;SDS011;7934;48.710;9.024;2023-04-28T08:42:41;0.75;;;0.75;;
15667;SDS011;7934;48.710;9.024;2023-04-28T08:45:12;0.70;;;0.70;;
15667;SDS011;7934;48.710;9.024;2023-04-28T08:47:41;0.50;;;0.50;;
15667;SDS011;7934;48.710;9.024;2023-04-28T08:50:11;0.32;;;0.32;;
15667;SDS011;7934;48.710;9.024;2023-04-28T08:52:39;0.47;;;0.47;;
15667;SDS011;7934;48.710;9.024;2023-04-28T08:55:07;0.45;;;0.45;;
15667;SDS011;7934;48.710;9.024;2023-04-28T08:57:37;0.17;;;0.17;;
15667;SDS011;7934;48.710;9.024;2023-04-28T09:00:04;0.40;;;0.40;;
15667;SDS011;7934;48.710;9.024;2023-04-28T09:02:32;0.50;;;0.50;;
15667;SDS011;7934;48.710;9.024;2023-04-28T09:05:01;0.47;;;0.47;;
15667;SDS011;7934;48.710;9.024;2023-04-28T09:07:28;0.40;;;0.40;;
15667;SDS011;7934;48.710;9.024;2023-04-28T09:10:14;0.20;;;0.20;;
15667;SDS011;7934;48.710;9.024;2023-04-28T09:12:42;0.17;;;0.17;;
15667;SDS011;7934;48.710;9.024;2023-04-28T09:15:09;0.33;;;0.33;;
15667;SDS011;7934;48.710;9.024;2023-04-28T09:17:46;0.70;;;0.50;;
15667;SDS011;7934;48.710;9.024;2023-04-28T09:20:19;0.90;;;0.35;;
15667;SDS011;7934;48.710;9.024;2023-04-28T09:22:47;0.15;;;0.15;;
15667;SDS011;7934;48.710;9.024;2023-04-28T09:25:15;0.22;;;0.22;;
15667;SDS011;7934;48.710;9.024;2023-04-28T09:27:42;1.10;;;0.55;;
15667;SDS011;7934;48.710;9.024;2023-04-28T09:30:10;0.60;;;0.50;;
15667;SDS011;7934;48.710;9.024;2023-04-28T09:32:37;0.45;;;0.45;;
15667;SDS011;7934;48.710;9.024;2023-04-28T09:35:04;0.52;;;0.52;;
15667;SDS011;7934;48.710;9.024;2023-04-28T09:37:33;0.63;;;0.63;;
15667;SDS011;7934;48.710;9.024;2023-04-28T09:40:02;0.60;;;0.60;;
15667;SDS011;7934;48.710;9.024;2023-04-28T09:42:31;0.57;;;0.57;;
15667;SDS011;7934;48.710;9.024;2023-04-28T09:44:59;0.40;;;0.40;;
15667;SDS011;7934;48.710;9.024;2023-04-28T09:47:27;0.57;;;0.47;;
15667;SDS011;7934;48.710;9.024;2023-04-28T09:49:56;0.22;;;0.22;;
15667;SDS011;7934;48.710;9.024;2023-04-28T09:52:24;0.30;;;0.30;;
15667;SDS011;7934;48.710;9.024;2023-04-28T09:54:53;0.30;;;0.30;;
15667;SDS011;7934;48.710;9.024;2023-04-28T09:57:20;0.10;;;0.10;;
15667;SDS011;7934;48.710;9.024;2023-04-28T09:59:48;0.20;;;0.20;;
15667;SDS011;7934;48.710;9.024;2023-04-28T10:02:16;0.00;;;0.00;;
15667;SDS011;7934;48.710;9.024;2023-04-28T10:04:46;0.20;;;0.20;;
15667;SDS011;7934;48.710;9.024;2023-04-28T10:07:14;0.17;;;0.17;;
15667;SDS011;7934;48.710;9.024;2023-04-28T10:09:42;0.30;;;0.27;;
15667;SDS011;7934;48.710;9.024;2023-04-28T10:12:13;0.05;;;0.05;;
15667;SDS011;7934;48.710;9.024;2023-04-28T10:14:41;0.10;;;0.10;;
15667;SDS011;7934;48.710;9.024;2023-04-28T10:17:08;0.13;;;0.13;;
15667;SDS011;7934;48.710;9.024;2023-04-28T10:19:36;0.00;;;0.00;;
15667;SDS011;7934;48.710;9.024;2023-04-28T10:22:07;0.17;;;0.13;;
15667;SDS011;7934;48.710;9.024;2023-04-28T10:24:44;0.20;;;0.20;;
15667;SDS011;7934;48.710;9.024;2023-04-28T10:27:15;0.30;;;0.30;;
15667;SDS011;7934;48.710;9.024;2023-04-28T10:29:43;3.20;;;0.70;;
15667;SDS011;7934;48.710;9.024;2023-04-28T10:32:18;0.00;;;0.00;;
15667;SDS011;7934;48.710;9.024;2023-04-28T10:34:47;0.00;;;0.00;;
15667;SDS011;7934;48.710;9.024;2023-04-28T10:37:14;0.00;;;0.00;;
15667;SDS011;7934;48.710;9.024;2023-04-28T10:42:54;0.10;;;0.10;;
15667;SDS011;7934;48.710;9.024;2023-04-28T10:48:07;0.80;;;0.80;;
15667;SDS011;7934;48.710;9.024;2023-04-28T10:50:35;1.08;;;1.00;;
15667;SDS011;7934;48.710;9.024;2023-04-28T10:53:02;0.80;;;0.80;;
15667;SDS011;7934;48.710;9.024;2023-04-28T10:55:30;0.80;;;0.80;;
15667;SDS011;7934;48.710;9.024;2023-04-28T11:00:48;0.77;;;0.70;;
15667;SDS011;7934;48.710;9.024;2023-04-28T11:06:17;0.90;;;0.43;;
15667;SDS011;7934;48.710;9.024;2023-04-28T11:08:44;0.60;;;0.60;;
15667;SDS011;7934;48.710;9.024;2023-04-28T11:11:12;1.02;;;0.60;;
15667;SDS011;7934;48.710;9.024;2023-04-28T11:13:39;0.70;;;0.63;;
15667;SDS011;7934;48.710;9.024;2023-04-28T11:16:08;0.63;;;0.63;;
15667;SDS011;7934;48.710;9.024;2023-04-28T11:18:40;1.80;;;0.80;;
15667;SDS011;7934;48.710;9.024;2023-04-28T11:21:10;0.60;;;0.60;;
15667;SDS011;7934;48.710;9.024;2023-04-28T11:23:37;3.60;;;0.65;;
15667;SDS011;7934;48.710;9.024;2023-04-28T11:26:05;0.50;;;0.50;;
15667;SDS011;7934;48.710;9.024;2023-04-28T11:28:32;0.70;;;0.70;;
15667;SDS011;7934;48.710;9.024;2023-04-28T11:31:10;0.70;;;0.70;;
15667;SDS011;7934;48.710;9.024;2023-04-28T11:33:39;2.70;;;2.50;;
15667;SDS011;7934;48.710;9.024;2023-04-28T11:36:07;3.90;;;3.33;;
15667;SDS011;7934;48.710;9.024;2023-04-28T11:38:47;0.70;;;0.70;;
15667;SDS011;7934;48.710;9.024;2023-04-28T11:41:15;1.70;;;0.80;;
15667;SDS011;7934;48.710;9.024;2023-04-28T11:43:42;0.60;;;0.60;;
15667;SDS011;7934;48.710;9.024;2023-04-28T11:46:11;1.10;;;0.90;;
15667;SDS011;7934;48.710;9.024;2023-04-28T11:48:41;0.70;;;0.70;;
15667;SDS011;7934;48.710;9.024;2023-04-28T11:51:09;0.60;;;0.60;;
15667;SDS011;7934;48.710;9.024;2023-04-28T11:53:39;0.93;;;0.68;;
15667;SDS011;7934;48.710;9.024;2023-04-28T11:56:07;0.70;;;0.70;;
15667;SDS011;7934;48.710;9.024;2023-04-28T11:58:34;0.60;;;0.53;;
15667;SDS011;7934;48.710;9.024;2023-04-28T12:01:08;0.70;;;0.70;;
15667;SDS011;7934;48.710;9.024;2023-04-28T12:03:43;0.88;;;0.70;;
15667;SDS011;7934;48.710;9.024;2023-04-28T12:06:10;0.70;;;0.70;;
15667;SDS011;7934;48.710;9.024;2023-04-28T12:08:37;0.65;;;0.65;;
15667;SDS011;7934;48.710;9.024;2023-04-28T12:11:07;1.30;;;0.60;;
15667;SDS011;7934;48.710;9.024;2023-04-28T12:13:35;0.95;;;0.50;;
15667;SDS011;7934;48.710;9.024;2023-04-28T12:16:03;1.13;;;0.82;;
15667;SDS011;7934;48.710;9.024;2023-04-28T12:18:33;2.35;;;0.80;;
15667;SDS011;7934;48.710;9.024;2023-04-28T12:21:02;1.00;;;1.00;;
15667;SDS011;7934;48.710;9.024;2023-04-28T12:23:30;1.08;;;0.85;;
15667;SDS011;7934;48.710;9.024;2023-04-28T12:25:58;2.00;;;0.80;;
15667;SDS011;7934;48.710;9.024;2023-04-28T12:28:35;0.85;;;0.60;;
15667;SDS011;7934;48.710;9.024;2023-04-28T12:31:05;0.80;;;0.80;;
15667;SDS011;7934;48.710;9.024;2023-04-28T12:33:34;2.45;;;0.85;;
15667;SDS011;7934;48.710;9.024;2023-04-28T12:36:03;1.30;;;0.60;;
15667;SDS011;7934;48.710;9.024;2023-04-28T12:38:31;0.57;;;0.57;;
15667;SDS011;7934;48.710;9.024;2023-04-28T12:40:59;0.50;;;0.50;;
15667;SDS011;7934;48.710;9.024;2023-04-28T12:43:26;0.63;;;0.63;;
15667;SDS011;7934;48.710;9.024;2023-04-28T12:45:53;1.27;;;0.90;;
15667;SDS011;7934;48.710;9.024;2023-04-28T12:48:21;1.10;;;0.90;;
15667;SDS011;7934;48.710;9.024;2023-04-28T12:50:49;2.30;;;0.88;;
15667;SDS011;7934;48.710;9.024;2023-04-28T12:53:17;1.25;;;0.95;;
15667;SDS011;7934;48.710;9.024;2023-04-28T12:55:45;0.80;;;0.80;;
15667;SDS011;7934;48.710;9.024;2023-04-28T12:58:12;0.63;;;0.63;;
15667;SDS011;7934;48.710;9.024;2023-04-28T13:00:39;0.70;;;0.70;;
15667;SDS011;7934;48.710;9.024;2023-04-28T13:03:06;0.70;;;0.70;;
15667;SDS011;7934;48.710;9.024;2023-04-28T13:05:33;0.63;;;0.63;;
15667;SDS011;7934;48.710;9.024;2023-04-28T13:08:01;1.00;;;0.90;;
15667;SDS011;7934;48.710;9.024;2023-04-28T13:10:33;0.60;;;0.50;;
15667;SDS011;7934;48.710;9.024;2023-04-28T13:13:00;0.90;;;0.60;;
15667;SDS011;7934;48.710;9.024;2023-04-28T13:15:27;0.75;;;0.70;;
15667;SDS011;7934;48.710;9.024;2023-04-28T13:17:54;0.75;;;0.75;;
15667;SDS011;7934;48.710;9.024;2023-04-28T13:20:23;1.20;;;0.50;;
15667;SDS011;7934;48.710;9.024;2023-04-28T13:22:50;1.38;;;0.50;;
15667;SDS011;7934;48.710;9.024;2023-04-28T13:25:17;0.65;;;0.65;;
15667;SDS011;7934;48.710;9.024;2023-04-28T13:27:47;1.23;;;0.83;;
15667;SDS011;7934;48.710;9.024;2023-04-28T13:30:14;1.55;;;1.45;;
15667;SDS011;7934;48.710;9.024;2023-04-28T13:32:42;1.15;;;0.47;;
15667;SDS011;7934;48.710;9.024;2023-04-28T13:35:09;0.60;;;0.50;;
15667;SDS011;7934;48.710;9.024;2023-04-28T13:37:36;1.20;;;0.82;;
15667;SDS011;7934;48.710;9.024;2023-04-28T13:40:10;0.80;;;0.80;;
15667;SDS011;7934;48.710;9.024;2023-04-28T13:42:37;1.20;;;0.75;;
15667;SDS011;7934;48.710;9.024;2023-04-28T13:45:06;1.60;;;0.60;;
15667;SDS011;7934;48.710;9.024;2023-04-28T13:47:33;0.57;;;0.57;;
15667;SDS011;7934;48.710;9.024;2023-04-28T13:50:01;1.10;;;0.60;;
15667;SDS011;7934;48.710;9.024;2023-04-28T13:52:28;2.40;;;0.60;;
15667;SDS011;7934;48.710;9.024;2023-04-28T13:54:55;0.93;;;0.82;;
15667;SDS011;7934;48.710;9.024;2023-04-28T13:57:22;0.80;;;0.80;;
15667;SDS011;7934;48.710;9.024;2023-04-28T13:59:49;0.90;;;0.60;;
15667;SDS011;7934;48.710;9.024;2023-04-28T14:02:22;0.70;;;0.70;;
15667;SDS011;7934;48.710;9.024;2023-04-28T14:04:51;0.70;;;0.70;;
15667;SDS011;7934;48.710;9.024;2023-04-28T14:07:19;2.20;;;0.77;;
15667;SDS011;7934;48.710;9.024;2023-04-28T14:09:47;0.90;;;0.82;;
15667;SDS011;7934;48.710;9.024;2023-04-28T14:12:15;0.73;;;0.73;;
15667;SDS011;7934;48.710;9.024;2023-04-28T14:14:42;0.80;;;0.70;;
15667;SDS011;7934;48.710;9.024;2023-04-28T14:17:12;0.73;;;0.73;;
15667;SDS011;7934;48.710;9.024;2023-04-28T14:19:40;2.40;;;1.30;;
15667;SDS011;7934;48.710;9.024;2023-04-28T14:22:07;1.80;;;1.15;;
15667;SDS011;7934;48.710;9.024;2023-04-28T14:24:35;2.10;;;1.08;;
15667;SDS011;7934;48.710;9.024;2023-04-28T14:27:02;2.35;;;1.20;;
15667;SDS011;7934;48.710;9.024;2023-04-28T14:29:29;1.10;;;1.10;;
15667;SDS011;7934;48.710;9.024;2023-04-28T14:31:57;1.40;;;1.30;;
15667;SDS011;7934;48.710;9.024;2023-04-28T14:34:24;1.10;;;0.90;;
15667;SDS011;7934;48.710;9.024;2023-04-28T14:36:53;0.50;;;0.50;;
15667;SDS011;7934;48.710;9.024;2023-04-28T14:39:20;1.08;;;0.80;;
15667;SDS011;7934;48.710;9.024;2023-04-28T14:41:47;1.30;;;0.80;;
15667;SDS011;7934;48.710;9.024;2023-04-28T14:44:15;0.80;;;0.80;;
15667;SDS011;7934;48.710;9.024;2023-04-28T14:46:42;0.70;;;0.60;;
15667;SDS011;7934;48.710;9.024;2023-04-28T14:49:12;1.48;;;1.00;;
15667;SDS011;7934;48.710;9.024;2023-04-28T14:51:39;1.20;;;1.20;;
15667;SDS011;7934;48.710;9.024;2023-04-28T14:54:08;0.80;;;0.80;;
15667;SDS011;7934;48.710;9.024;2023-04-28T14:56:37;0.93;;;0.80;;
15667;SDS011;7934;48.710;9.024;2023-04-28T14:59:04;1.52;;;0.95;;
15667;SDS011;7934;48.710;9.024;2023-04-28T15:01:32;0.70;;;0.70;;
15667;SDS011;7934;48.710;9.024;2023-04-28T15:03:59;0.82;;;0.82;;
15667;SDS011;7934;48.710;9.024;2023-04-28T15:06:26;1.38;;;0.98;;
15667;SDS011;7934;48.710;9.024;2023-04-28T15:08:53;0.83;;;0.83;;
15667;SDS011;7934;48.710;9.024;2023-04-28T15:11:22;1.00;;;0.90;;
15667;SDS011;7934;48.710;9.024;2023-04-28T15:13:49;1.17;;;1.08;;
15667;SDS011;7934;48.710;9.024;2023-04-28T15:16:16;1.97;;;1.00;;
15667;SDS011;7934;48.710;9.024;2023-04-28T15:18:43;3.80;;;1.02;;
15667;SDS011;7934;48.710;9.024;2023-04-28T15:21:11;2.72;;;1.10;;
15667;SDS011;7934;48.710;9.024;2023-04-28T15:23:38;2.30;;;1.30;;
15667;SDS011;7934;48.710;9.024;2023-04-28T15:26:05;3.00;;;2.58;;